Webcam Flughafen St.Gallen-Altenrhein

Live-Bilder und Zeitraffer LSZR / ACH.

 

Live aus Altenrhein
LIVE
LSZR 251950Z AUTO 26004KT 220V290 9999 FEW100 18/17 Q1012 RERA
Zeitraffer heute
2021-07-25 00:14:27
LSZR 242150Z AUTO VRB03KT 9999 VCTS FEW010 BKN100 SCT///CB 18/18 Q1012 RETSRA